Jesus Arteaga

Ojeador - Pachuca
22 Feb 2028
Martes
Continuar

Personalidad

Adaptabilidad (15) Ambición (14) Controversia (20) Lealtad (19) Presión (13) Profesionalismo (6) Deportividad (12) Temperamento (10)

Perfil

Estilo de dirección Democrático
Licencia Nacional A
Determinación 13
Gestión de personas 10
Motivación 4
Disciplina 5
Satisfacción laboral
100%
Fatiga
0%
Cargo Ojeador
Salario 31.8K p/s
Contrato 14.03.2030

Rendimiento

Comportamiento Bueno
Efectividad del entrenamiento
46%
Desarrollo de jugadores
40%
Prevención de lesiones
20%
Implementación táctica
65%

Eventos recientes

Asistió a una reunión de captación ahora
Asistió a una reunión de captación ahora
Recomendó un objetivo de fichaje ahora
Recomendó un objetivo de fichaje ahora
Recomendó un objetivo de fichaje ahora
Evaluó a un jugador 7d atrás
Evaluó a un jugador 7d atrás
Evaluó a un jugador 7d atrás

Actualmente siguiendo

211
Jugador Club Estado Habilidad Confianza Observado Última observación Último voto
Sascha Britschgi Padova Activo 121 / 121 40% 1 19.02.2028 -
Tobías Ramírez River Plate Activo 125 / 131 40% 1 19.02.2028 -
Jorthy Mokio ADO Den Haag Activo 130 / 142 40% 1 19.02.2028 -
David Valencia Alianza Petrolera Activo 124 / 129 40% 4 18.02.2028 -
Abubakar Adams Aduana Stars Activo 79 / 93 40% 1 18.02.2028 -
Alexis Vossah FC Nantes Activo 128 / 125 40% 1 18.02.2028 -
Jon Martín Real Sociedad Activo 143 / 148 40% 3 17.02.2028 -
Eduardo Felicíssimo Sporting CP Activo 127 / 124 40% 1 17.02.2028 -
Nejc Viher NK Maribor Activo 118 / 125 40% 1 17.02.2028 -
Buba Sangaré Elche Activo 126 / 132 40% 4 16.02.2028 -
Trey Nyoni Rotherham United Activo 130 / 143 40% 2 16.02.2028 -
Jovan Milosavljević Kalmar FF Activo 106 / 109 40% 1 16.02.2028 -
Tobías Andrada Virtus Entella Activo 127 / 126 40% 2 13.02.2028 -
Avery Appiah Ajax Activo 127 / 124 40% 1 13.02.2028 -
Darryl Bakola Padova Activo 124 / 118 40% 1 13.02.2028 -
Martim Cunha Porto Activo 110 / 113 40% 4 12.02.2028 -
Ronan Kpakio Cardiff City Activo 121 / 128 40% 3 12.02.2028 -
Nikola Simić Partizan Activo 125 / 123 40% 1 12.02.2028 -
Josh Nichols Tranmere Rovers Activo 130 / 129 40% 2 11.02.2028 -
Nour Ashraf ENPPI Activo 96 / 93 40% 1 11.02.2028 -
Pape Diong Westerlo Activo 123 / 128 40% 1 11.02.2028 -
Keyane el Ouansaidi Cruz Azul Activo 94 / 106 40% 1 10.02.2028 -
Keagan Phiri Platinum Stars Activo 102 / 107 40% 1 10.02.2028 -
Matías Canedo Rampla Juniors Activo 81 / 94 40% 2 09.02.2028 -
Mikkel Hope Haugesund Activo 107 / 109 40% 1 09.02.2028 -
Owen Foye Swindon Town Activo 84 / 90 40% 1 09.02.2028 -
Christos Mouzakitis Hull City Activo 133 / 137 40% 2 07.02.2028 -
Luis Otávio Colorado Rapids Activo 117 / 117 40% 2 07.02.2028 -
Martín Jiménez Audax Italiano Activo 96 / 104 40% 1 07.02.2028 -
Ignacio Fernández Boston River Activo 94 / 99 40% 3 31.01.2028 -
Toni Fruk Udinese Activo 132 / 133 89% 1 31.01.2028 Aprobar
Andreas Trimmel Trabzonspor Activo 131 / 131 60% 1 17.01.2028 Aprobar
Felipe Faúndez O'Higgins Perdido 106 / 110 40% 2 10.01.2028 -
Dmitry Pestryakov Dinamo Moscow Activo 118 / 130 40% 1 10.01.2028 -
Daniel Banjaqui Benfica Activo 126 / 125 40% 1 10.01.2028 -
Federico Pereira Nacional Activo 135 / 135 68% 1 01.01.2028 Aprobar
Mao Hosoya Everton Negociando 134 / 135 90% 1 01.01.2028 Aprobar
Juan Giménez Celta Activo 121 / 125 40% 5 09.12.2027 -
Dylan Gorosito Villarreal Activo 127 / 125 40% 1 09.12.2027 -
Esquerdinha Shrewsbury Town Activo 128 / 124 40% 1 08.12.2027 -
Hervin Goyes Deportivo Pasto Activo 109 / 108 40% 2 05.12.2027 -
Mads Bomholt Stabaek Activo 103 / 112 40% 2 05.12.2027 -
Olaniyi Saheed Kwara United Activo 104 / 99 40% 1 05.12.2027 -
Nazareno Roselli Defensa y Justicia Activo 119 / 119 40% 2 02.12.2027 -
Tyson Pearce St. Louis CITY SC Activo 99 / 102 40% 1 02.12.2027 -
Daniel Gomez Valledupar Activo 81 / 93 40% 3 01.12.2027 -
Noahkai Banks Hamburger SV Activo 142 / 146 40% 1 01.12.2027 -
Joel Ezra Enyimba Activo 85 / 98 40% 1 01.12.2027 -
José Movillo O'Higgins Activo 89 / 85 40% 2 29.11.2027 -
Santiago Espíndola River Plate Activo 100 / 116 40% 1 29.11.2027 -
Mauro Carrizo Atlético Tucumán Activo 99 / 109 40% 1 27.11.2027 -
Izan Merino Málaga Activo 120 / 131 40% 1 27.11.2027 -
Ricky Atletico Venezuela Activo 97 / 105 40% 3 24.11.2027 -
Julio Patiño Fortaleza CEIF Activo 87 / 91 40% 1 24.11.2027 -
Celías Ingenthron Vélez Activo 117 / 120 40% 2 23.11.2027 -
Harbor Miller LA Galaxy Activo 98 / 107 40% 1 23.11.2027 -
Tiago Gordillo San Miguel Activo 92 / 97 40% 1 22.11.2027 -
Elkin Rivero Atletico Nacional Activo 100 / 108 40% 1 22.11.2027 -
José Correa Deportivo Tachira Activo 91 / 96 40% 1 20.11.2027 -
Bahia Criciuma Activo 120 / 119 40% 1 19.11.2027 -
Sebastián Ramírez Jaguares Activo 106 / 110 40% 2 08.11.2027 -
David Damboama El-Kanemi Warriors Activo 87 / 85 40% 1 06.11.2027 -
Ulises Giménez River Plate Activo 113 / 120 40% 1 06.11.2027 -
Hosea Michael Remo Stars Activo 84 / 99 40% 2 05.11.2027 -
Jorge Salinas Racing Santander Activo 122 / 127 40% 1 05.10.2027 -
Christ Inao Oulaï Fiorentina Activo 147 / 144 40% 2 12.07.2027 -
Mbekezeli Mbokazi Chicago Fire Activo 120 / 134 40% 1 12.07.2027 -
Jan Bürger Gillingham Activo 111 / 119 40% 1 12.07.2027 -
Matías Gómez Granada Activo 120 / 126 40% 4 05.07.2027 -
Adam Bakoune Ospitaletto Activo 107 / 112 40% 2 05.07.2027 -
Jofre Torrents Ajax Activo 128 / 140 40% 1 05.07.2027 -
Shea Lacey Wolverhampton Activo 123 / 131 40% 1 21.06.2027 -
Mfundo Vilakazi Kaizer Chiefs Activo 119 / 114 40% 1 21.06.2027 -
Manu Rodríguez Gijón Activo 112 / 116 40% 1 21.06.2027 -
Ethan Williams Peterborough United Activo 107 / 117 40% 1 14.06.2027 -
Stanislav Agkatsev Sunderland Activo 132 / 133 66% 1 01.06.2027 Aprobar
Dom Ballard Leyton Orient Activo 124 / 116 40% 2 31.05.2027 -
Tom Cannon Sheffield United Activo 131 / 121 40% 6 31.05.2027 -
Che Adams Torino Activo 143 / 141 40% 1 31.05.2027 -
Jayden Wareham Barnet Activo 111 / 104 40% 3 30.05.2027 -
Richard Koné Queens Park Rangers Activo 118 / 118 40% 1 30.05.2027 -
Giuseppe Di Serio Spezia Activo 124 / 112 40% 5 28.05.2027 -
Callum Stead Barnet Activo 95 / 94 40% 3 28.05.2027 -
Emanuele Schimmenti Potenza Activo 113 / 118 40% 2 27.05.2027 -
Lorenzo Di Stefano Torres Activo 99 / 107 40% 3 27.05.2027 -
Aral Şimşir Trabzonspor Activo 137 / 125 40% 1 27.05.2027 -
Konan N'Dri Lecce Activo 123 / 131 40% 2 26.05.2027 -
Mees Rijks Bristol Rovers Activo 113 / 120 40% 2 26.05.2027 -
Tyreece Campbell Charlton Athletic Activo 108 / 119 40% 3 25.05.2027 -
Ilyas Ansah Hull City Activo 140 / 130 40% 3 25.05.2027 -
Toni Tamarit Alverca Activo 118 / 127 40% 1 25.05.2027 -
João Teixeira Porto Activo 117 / 111 40% 1 25.05.2027 -
Tobias Slotsager Casertana Activo 114 / 111 40% 1 24.05.2027 -
Samuel Posada Leones Activo 88 / 93 40% 1 23.05.2027 -
Cheveyo Tsawa Club Brugge Activo 107 / 135 40% 1 23.05.2027 -
Samuel Lucero Defensa y Justicia Activo 114 / 117 40% 1 23.05.2027 -
Agustín Medina Valencia Activo 110 / 129 40% 2 21.05.2027 -
Kevin Vazquez Cruz Azul Activo 140 / 143 40% 2 20.05.2027 -
Davide Bartesaghi AC Milan Activo 125 / 139 40% 1 20.05.2027 -
Lee Bonis Chesterfield Activo 98 / 104 40% 5 18.05.2027 -
Duk Atlas Activo 119 / 121 40% 1 18.05.2027 -
Bongani Mothiba SuperSport United Activo 94 / 90 40% 3 17.05.2027 -
Oh Hyeon-Gyu Besiktas Activo 123 / 118 40% 4 17.05.2027 -
Rhian Brewster Oxford United Activo 121 / 115 40% 4 16.05.2027 -
Lewis McCann Fleetwood Town Activo 107 / 104 40% 5 16.05.2027 -
Yousef Salech Cardiff City Activo 127 / 131 40% 3 15.05.2027 -
Tyrese Campbell Sheffield United Activo 136 / 129 40% 1 15.05.2027 -
Robert Mizo Ashanti Gold Activo 101 / 93 40% 3 14.05.2027 -
Stiven Shpendi Empoli Activo 123 / 118 40% 1 14.05.2027 -
Aune Heggebø West Bromwich Albion Activo 136 / 128 40% 6 13.05.2027 -
Kelly Saravanan Salford City Activo 99 / 110 40% 3 12.05.2027 -
Adriano Bertaccini Anderlecht Activo 122 / 119 40% 1 12.05.2027 -
Calum Kavanagh Oldham Athletic Activo 95 / 94 40% 1 11.05.2027 -
Niall Ennis Blackpool Activo 107 / 115 40% 3 10.05.2027 -
Mathias Jørgensen Blackburn Rovers Activo 128 / 115 40% 2 10.05.2027 -
Etiosa Ighodaro Kaizer Chiefs Activo 121 / 109 40% 2 09.05.2027 -
Daniel Kelly Oxford United Activo 106 / 126 40% 2 09.05.2027 -
Cameron Archer Southampton Activo 137 / 127 40% 1 09.05.2027 -
Zeki Amdouni Burnley Activo 130 / 124 40% 1 07.05.2027 -
Will Lankshear Middlesbrough Activo 122 / 134 40% 1 07.05.2027 -
Lorent Tolaj Plymouth Argyle Activo 120 / 125 40% 3 05.05.2027 -
Evidence Makgopa Orlando Pirates Activo 116 / 107 40% 5 02.05.2027 -
John Yeboah Venezia Activo 130 / 118 40% 1 02.05.2027 -
Bernat Guiu Virtus Entella Activo 127 / 119 40% 2 01.05.2027 -
Ekain Orobengoa Real Sociedad Activo 96 / 114 40% 1 27.04.2027 -
Cristian Shpendi Cesena Activo 129 / 141 40% 1 27.04.2027 -
Nicolò Tresoldi Club Brugge Activo 138 / 126 40% 2 26.04.2027 Más información
Caleb Yirenkyi Coventry City Activo 134 / 144 40% 1 26.04.2027 -
Andrés Dieppa Metalurh Zaporizhzhia Activo 87 / 90 40% 1 24.04.2027 -
Facundo Di Biasi Gimnasia La Plata Activo 116 / 130 40% 1 23.04.2027 -
Luis Vázquez Birmingham Activo 129 / 135 40% 1 22.04.2027 -
Iwan Morgan Grimsby Town Activo 116 / 120 40% 4 17.04.2027 -
Fabrizio Sartori Leon Activo 117 / 115 40% 1 17.04.2027 -
Christian Saydee Wigan Athletic Activo 113 / 115 40% 1 16.04.2027 -
Efraín Álvarez Guadalajara Activo 125 / 137 40% 2 12.04.2027 -
Percy Jali Free State Stars Activo 106 / 105 40% 1 11.04.2027 -
Samuele di Benedetto Bari Activo 103 / 117 40% 1 11.04.2027 -
Zane Albarus Cambridge United Activo 86 / 104 40% 1 10.04.2027 -
Bamba Dieng Crvena Zvezda Activo 140 / 127 40% 1 09.04.2027 -
Bojan Radulović Huddersfield Town Activo 110 / 114 40% 3 07.04.2027 -
Tomás González Piast Activo 112 / 109 40% 1 06.04.2027 -
Kelvin Obeng Medeama Activo 88 / 82 40% 1 02.04.2027 -
Yaw Mensah Hasaacas Activo 80 / 87 40% 1 02.04.2027 -
Adnan Courtois KV Oostende Activo 143 / 137 40% 2 30.03.2027 -
Harry Leonard Peterborough United Activo 107 / 103 40% 2 29.03.2027 -
Joe Gelhardt Hull City Activo 124 / 137 40% 1 28.03.2027 -
Job Ochieng Real Sociedad Activo 110 / 106 40% 1 28.03.2027 -
Ahmed Kutucu Konyaspor Activo 130 / 121 40% 2 27.03.2027 -
Jaze Kabia Grimsby Town Activo 96 / 84 40% 1 26.03.2027 -
Santiago Pierotti Lecce Activo 141 / 137 40% 1 25.03.2027 -
Myron van Brederode KV Mechelen Activo 125 / 120 40% 1 21.03.2027 -
Tamerlan Musaev CSKA Moscow Activo 117 / 122 40% 1 18.03.2027 -
Isa Sakamoto Westerlo Activo 116 / 115 40% 1 18.03.2027 -
Omar Campos Cruz Azul Activo 130 / 123 40% 1 27.12.2026 -
Toti Wolverhampton Activo 131 / 140 40% 1 27.12.2026 -
Tristan Degreef Anderlecht Activo 120 / 120 40% 1 26.12.2026 -
Kwadwo Baah Watford Activo 132 / 136 40% 1 24.12.2026 -
Marcelo Allende Mamelodi Sundowns Activo 127 / 125 40% 2 23.12.2026 -
Tomáš Rigo Stoke City Activo 127 / 126 40% 1 23.12.2026 -
Shea Charles Southampton Activo 139 / 132 40% 1 23.12.2026 -
Edoardo Bove Watford Activo 125 / 139 40% 2 21.12.2026 -
Pedro Vite Pumas UNAM Activo 119 / 126 40% 1 21.12.2026 -
Teden Mengi Luton Town Activo 128 / 116 40% 1 21.12.2026 -
Marquinhos Spartak Moscow Activo 135 / 125 40% 2 20.12.2026 -
Florentino Luís Ipswich Town Activo 150 / 143 40% 1 20.12.2026 -
Tyler Goodrham Oxford United Activo 114 / 114 40% 1 20.12.2026 -
Volodymyr Brazhko Dynamo Kyiv Activo 125 / 130 40% 1 18.12.2026 -
Cheick Doucouré Crystal Palace Activo 135 / 141 40% 1 18.12.2026 -
Victor Parada Spartak Moscow Activo 124 / 126 40% 1 18.12.2026 -
Félix Lemaréchal Club Brugge Activo 142 / 138 40% 2 17.12.2026 -
Mario Stroeykens Anderlecht Activo 118 / 119 40% 2 17.12.2026 -
Ammar Ramadan DAC Dunajska Streda Activo 119 / 124 40% 1 15.12.2026 -
Damián Fernández Defensa y Justicia Activo 123 / 127 40% 1 14.12.2026 -
Lukáš Červ Viktoria Plzen Activo 128 / 132 40% 1 14.12.2026 -
Emerson Batalla Atletico Bucaramanga Activo 126 / 118 40% 1 12.12.2026 -
Rodrigo Huescas FC Copenhagen Activo 144 / 123 40% 1 12.12.2026 -
Adrián Bernabé Parma Activo 138 / 140 40% 1 12.12.2026 -
Toby Collyer West Bromwich Albion Activo 137 / 125 40% 1 12.12.2026 -
Brian Rodríguez Club America Activo 121 / 129 40% 2 10.12.2026 -
Juan Carlos Portillo River Plate Activo 129 / 134 40% 1 09.12.2026 -
Joaquín Gho Argentinos Juniors Activo 128 / 128 40% 2 07.12.2026 -
Ali Ahmed Norwich City Activo 124 / 126 40% 1 07.12.2026 -
Petar Stanić Ludogorets Activo 134 / 125 40% 2 05.12.2026 -
Angelo Gattermayer Wolfsberger AC Activo 123 / 113 40% 1 05.12.2026 -
Leandro Lozano Boca Juniors Activo 124 / 125 40% 1 29.11.2026 -
Eduardo Dos Santos Veracruz Activo 119 / 121 40% 1 27.11.2026 -
Ruben van Bommel Ferencvaros Activo 133 / 132 40% 1 27.11.2026 -
Diego Lainez Tigres Activo 132 / 121 40% 1 25.11.2026 -
Junior Hernández Deportes Tolima Activo 115 / 112 40% 1 22.11.2026 -
Déiber Caicedo Junior Activo 124 / 121 40% 1 21.11.2026 -
Mandla Erasmus SuperSport United Activo 124 / 132 40% 1 21.11.2026 -
Rodrigo Herrera Newell's Old Boys Activo 126 / 115 40% 2 20.11.2026 -
Bradley Tau SuperSport United Activo 135 / 131 40% 1 20.11.2026 -
Sondre Langås Derby County Activo 131 / 122 40% 1 20.11.2026 -
Aurèle Amenda Coventry City Activo 124 / 125 40% 1 19.11.2026 -
Fidel Ambríz Monterrey Activo 131 / 138 40% 1 19.11.2026 -
Finn Azaz Southampton Activo 122 / 121 40% 1 15.11.2026 -
Alexis Cuello San Lorenzo Activo 123 / 123 40% 1 15.11.2026 -
Reda Khadra Qarabag Activo 143 / 119 40% 1 10.11.2026 -
Santiago González Tigre Activo 121 / 134 40% 1 08.11.2026 -
Facundo Zabala Independiente Activo 117 / 121 40% 1 08.11.2026 -
Alan Lescano Argentinos Juniors Activo 133 / 130 40% 1 05.11.2026 -
Tomás Silva Platense Activo 130 / 127 40% 1 04.11.2026 -
César Ibáñez Huracán Activo 130 / 127 40% 1 02.11.2026 -
Siro Rosané Estudiantes Activo 122 / 111 40% 1 02.11.2026 -
Simón Pinto Palestino Activo 97 / 105 40% 1 09.10.2026 -
Mateo Mendoza Godoy Cruz Activo 128 / 130 40% 1 09.10.2026 -
Axel Frugone Defensor Sporting Activo 121 / 123 40% 1 07.10.2026 -
Erico Cuello Defensor Sporting Activo 95 / 107 40% 1 06.10.2026 -
Alexis González Lanús Activo 96 / 108 40% 1 06.10.2026 -
Aldahir Pérez Tijuana Activo 112 / 110 40% 1 01.08.2026 -